createdAt,value
2022-08-30T00:00:16.753Z,0.20
2022-08-30T00:02:44.966Z,0.20
2022-08-30T00:05:13.400Z,0.20
2022-08-30T00:07:42.863Z,0.20
2022-08-30T00:10:11.620Z,0.10
2022-08-30T00:12:39.755Z,0.10
2022-08-30T00:15:11.812Z,0.20
2022-08-30T00:17:40.845Z,0.20
2022-08-30T00:20:12.585Z,0.20
2022-08-30T00:22:41.156Z,0.20
2022-08-30T00:25:09.903Z,0.20
2022-08-30T00:27:37.817Z,0.13
2022-08-30T00:30:07.074Z,0.20
2022-08-30T00:32:36.564Z,0.20
2022-08-30T00:35:06.930Z,0.13
2022-08-30T00:37:35.467Z,0.20
2022-08-30T00:40:05.386Z,0.20
2022-08-30T00:42:34.651Z,0.20
2022-08-30T00:45:14.721Z,0.20
2022-08-30T00:47:45.194Z,0.20
2022-08-30T00:50:15.254Z,0.20
2022-08-30T00:52:47.536Z,0.20
2022-08-30T00:55:19.170Z,0.20
2022-08-30T00:57:48.774Z,0.20
2022-08-30T01:00:19.079Z,0.20
2022-08-30T01:02:48.922Z,0.20
2022-08-30T01:05:20.555Z,0.20
2022-08-30T01:07:48.422Z,0.20
2022-08-30T01:10:18.993Z,0.20
2022-08-30T01:12:48.582Z,0.20
2022-08-30T01:15:16.928Z,0.20
2022-08-30T01:17:49.732Z,0.20
2022-08-30T01:20:25.132Z,0.10
2022-08-30T01:23:18.453Z,0.10
2022-08-30T01:25:48.583Z,0.20
2022-08-30T01:28:22.359Z,0.20
2022-08-30T01:30:50.710Z,0.20
2022-08-30T01:33:20.119Z,0.20
2022-08-30T01:35:53.735Z,0.20
2022-08-30T01:38:27.157Z,0.20
2022-08-30T01:40:59.523Z,0.20
2022-08-30T01:43:29.042Z,0.20
2022-08-30T01:45:57.260Z,0.20
2022-08-30T01:48:30.860Z,0.20
2022-08-30T01:50:59.618Z,0.20
2022-08-30T01:53:30.433Z,0.20
2022-08-30T01:55:58.373Z,0.20
2022-08-30T01:58:26.361Z,0.20
2022-08-30T02:00:54.531Z,0.20
2022-08-30T02:03:22.880Z,0.20
2022-08-30T02:05:50.776Z,0.20
2022-08-30T02:08:18.753Z,0.20
2022-08-30T02:10:48.112Z,0.20
2022-08-30T02:13:16.046Z,0.20
2022-08-30T02:15:44.057Z,0.20
2022-08-30T02:18:11.965Z,0.20
2022-08-30T02:20:41.112Z,0.20
2022-08-30T02:23:11.364Z,0.20
2022-08-30T02:25:50.217Z,0.20
2022-08-30T02:28:19.802Z,0.20
2022-08-30T02:30:48.938Z,0.17
2022-08-30T02:33:17.067Z,0.20
2022-08-30T02:35:45.140Z,0.20
2022-08-30T02:38:13.982Z,0.20
2022-08-30T02:40:42.158Z,0.20
2022-08-30T02:43:11.611Z,0.20
2022-08-30T02:45:39.603Z,0.20
2022-08-30T02:48:07.455Z,0.20
2022-08-30T02:50:35.443Z,0.20
2022-08-30T02:53:03.392Z,0.20
2022-08-30T02:55:31.482Z,0.20
2022-08-30T02:57:59.303Z,0.10
2022-08-30T03:00:28.530Z,0.20
2022-08-30T03:02:56.506Z,0.20
2022-08-30T03:05:24.572Z,0.10
2022-08-30T03:07:52.631Z,0.10
2022-08-30T03:10:20.555Z,0.20
2022-08-30T03:12:48.991Z,0.20
2022-08-30T03:15:17.760Z,0.20
2022-08-30T03:17:47.921Z,0.20
2022-08-30T03:20:16.199Z,0.20
2022-08-30T03:22:44.185Z,0.10
2022-08-30T03:25:12.847Z,0.20
2022-08-30T03:27:40.935Z,0.20
2022-08-30T03:30:10.524Z,0.20
2022-08-30T03:32:38.853Z,0.20
2022-08-30T03:35:09.656Z,0.10
2022-08-30T03:37:37.896Z,0.20
2022-08-30T03:40:08.008Z,0.20
2022-08-30T03:42:36.118Z,0.20
2022-08-30T03:45:06.631Z,0.20
2022-08-30T03:47:34.703Z,0.20
2022-08-30T03:50:03.056Z,0.20
2022-08-30T03:52:32.540Z,0.20
2022-08-30T03:55:01.224Z,0.20
2022-08-30T03:57:30.439Z,0.20
2022-08-30T03:59:59.862Z,0.20
2022-08-30T04:02:28.436Z,0.20
2022-08-30T04:04:56.532Z,0.20
2022-08-30T04:07:24.511Z,0.20
2022-08-30T04:09:53.839Z,0.20
2022-08-30T04:12:22.844Z,0.20
2022-08-30T04:14:51.509Z,0.20
2022-08-30T04:17:19.872Z,0.20
2022-08-30T04:19:47.736Z,0.20
2022-08-30T04:22:15.679Z,0.20
2022-08-30T04:24:43.496Z,0.20
2022-08-30T04:27:12.809Z,0.20
2022-08-30T04:29:40.742Z,0.20
2022-08-30T04:32:08.831Z,0.20
2022-08-30T04:34:36.830Z,0.20
2022-08-30T04:37:04.691Z,0.20
2022-08-30T04:39:33.337Z,0.10
2022-08-30T04:42:03.269Z,0.20
2022-08-30T04:44:32.991Z,0.13
2022-08-30T04:47:00.907Z,0.20
2022-08-30T04:49:28.986Z,0.20
2022-08-30T04:51:56.991Z,0.20
2022-08-30T04:54:24.916Z,0.20
2022-08-30T04:56:54.700Z,0.20
2022-08-30T04:59:24.077Z,0.20
2022-08-30T05:01:53.417Z,0.20
2022-08-30T05:04:21.493Z,0.20
2022-08-30T05:06:49.286Z,0.20
2022-08-30T05:09:17.643Z,0.20
2022-08-30T05:11:46.464Z,0.30
2022-08-30T05:14:14.663Z,0.20
2022-08-30T05:16:42.897Z,0.20
2022-08-30T05:19:12.266Z,0.20
2022-08-30T05:21:41.812Z,0.20
2022-08-30T05:24:09.739Z,0.20
2022-08-30T05:26:39.892Z,0.20
2022-08-30T05:29:08.682Z,0.20
2022-08-30T05:31:37.433Z,0.20
2022-08-30T05:34:06.260Z,0.20
2022-08-30T05:36:37.867Z,0.20
2022-08-30T05:39:07.520Z,0.20
2022-08-30T05:41:39.225Z,0.20
2022-08-30T05:44:09.403Z,0.10
2022-08-30T05:46:39.512Z,0.10
2022-08-30T05:49:08.675Z,0.20
2022-08-30T05:51:43.197Z,0.20
2022-08-30T05:54:13.585Z,0.20
2022-08-30T05:56:43.374Z,0.20
2022-08-30T05:59:11.413Z,0.10
2022-08-30T06:01:41.409Z,0.20
2022-08-30T06:04:10.939Z,0.20
2022-08-30T06:06:45.065Z,0.20
2022-08-30T06:09:16.424Z,0.20
2022-08-30T06:11:44.847Z,0.20
2022-08-30T06:14:14.293Z,0.20
2022-08-30T06:16:44.146Z,0.20
2022-08-30T06:19:12.943Z,0.10
2022-08-30T06:21:42.782Z,0.20
2022-08-30T06:24:12.552Z,0.20
2022-08-30T06:26:44.345Z,0.20
2022-08-30T06:29:14.610Z,0.20
2022-08-30T06:31:42.751Z,0.13
2022-08-30T06:34:10.864Z,0.20
2022-08-30T06:36:43.361Z,0.20
2022-08-30T06:39:11.736Z,0.10
2022-08-30T06:41:42.144Z,0.10
2022-08-30T06:44:11.240Z,0.20
2022-08-30T06:46:40.056Z,0.20
2022-08-30T06:49:17.312Z,0.10
2022-08-30T06:51:51.517Z,0.20
2022-08-30T06:54:21.693Z,0.10
2022-08-30T06:56:58.247Z,0.20
2022-08-30T06:59:28.587Z,0.20
2022-08-30T07:01:57.988Z,0.20
2022-08-30T07:04:36.628Z,0.20
2022-08-30T07:07:05.988Z,0.20
2022-08-30T07:09:35.498Z,0.13
2022-08-30T07:12:04.425Z,0.20
2022-08-30T07:14:33.348Z,0.10
2022-08-30T07:17:01.609Z,0.20
2022-08-30T07:20:03.519Z,0.10
2022-08-30T07:22:33.535Z,0.10
2022-08-30T07:25:02.286Z,0.13
2022-08-30T07:27:32.829Z,0.10
2022-08-30T07:30:02.686Z,0.10
2022-08-30T07:32:30.859Z,0.10
2022-08-30T07:35:02.368Z,0.10
2022-08-30T07:37:33.123Z,0.10
2022-08-30T07:40:02.034Z,0.10
2022-08-30T07:42:30.208Z,0.13
2022-08-30T07:44:58.247Z,0.10
2022-08-30T07:47:26.188Z,0.10
2022-08-30T07:49:54.185Z,0.10
2022-08-30T07:52:22.280Z,0.10
2022-08-30T07:54:52.820Z,0.10
2022-08-30T07:57:20.935Z,0.10
2022-08-30T07:59:49.809Z,0.10
2022-08-30T08:02:19.050Z,0.10
2022-08-30T08:04:48.549Z,0.10
2022-08-30T08:07:16.776Z,0.10
2022-08-30T08:09:46.054Z,0.13
2022-08-30T08:12:15.309Z,0.10
2022-08-30T08:14:43.146Z,0.10
2022-08-30T08:17:11.098Z,0.10
2022-08-30T08:19:39.129Z,0.10
2022-08-30T08:22:20.439Z,0.10
2022-08-30T08:24:52.007Z,0.10
2022-08-30T08:27:24.762Z,0.10
2022-08-30T08:29:52.689Z,0.10
2022-08-30T08:32:20.663Z,0.10
2022-08-30T08:34:50.881Z,0.20
2022-08-30T08:37:20.795Z,0.10
2022-08-30T08:39:52.459Z,0.10
2022-08-30T08:42:32.971Z,0.20
2022-08-30T08:45:10.191Z,0.10
2022-08-30T08:47:48.173Z,0.10
2022-08-30T08:50:21.421Z,0.10
2022-08-30T08:53:20.409Z,0.20
2022-08-30T08:55:54.748Z,0.10
2022-08-30T08:58:27.041Z,0.10
2022-08-30T09:00:56.704Z,0.20
2022-08-30T09:03:27.485Z,0.10
2022-08-30T09:05:57.452Z,0.10
2022-08-30T09:08:40.500Z,0.10
2022-08-30T09:11:16.159Z,0.10
2022-08-30T09:13:45.355Z,0.10
2022-08-30T09:16:51.152Z,0.10
2022-08-30T09:19:35.068Z,0.20
2022-08-30T09:22:05.786Z,0.17
2022-08-30T09:24:42.878Z,0.10
2022-08-30T09:27:20.376Z,0.10
2022-08-30T09:29:56.889Z,0.10
2022-08-30T09:32:31.437Z,0.10
2022-08-30T09:34:59.876Z,0.10
2022-08-30T09:37:50.171Z,0.00
2022-08-30T09:40:26.618Z,0.00
2022-08-30T09:43:07.611Z,0.10
2022-08-30T09:45:40.329Z,0.10
2022-08-30T09:48:33.001Z,0.10
2022-08-30T09:51:35.452Z,0.10
2022-08-30T09:54:17.858Z,0.10
2022-08-30T09:57:02.003Z,0.10
2022-08-30T09:59:47.416Z,0.10
2022-08-30T10:02:38.265Z,0.10
2022-08-30T10:05:16.836Z,0.00
2022-08-30T10:07:56.949Z,0.10
2022-08-30T10:10:36.160Z,0.10
2022-08-30T10:13:27.265Z,0.00
2022-08-30T10:16:03.139Z,0.10
2022-08-30T10:18:42.634Z,0.10
2022-08-30T10:21:19.199Z,0.00
2022-08-30T10:23:52.116Z,0.10
2022-08-30T10:26:29.986Z,0.10
2022-08-30T10:29:02.699Z,0.00
2022-08-30T10:31:46.208Z,0.10
2022-08-30T10:34:21.504Z,0.00
2022-08-30T10:36:56.227Z,0.00
2022-08-30T10:39:28.309Z,0.00
2022-08-30T10:42:04.269Z,0.00
2022-08-30T10:44:39.874Z,0.10
2022-08-30T10:47:23.251Z,0.10
2022-08-30T10:50:01.698Z,0.10
2022-08-30T10:52:37.602Z,0.10
2022-08-30T10:55:10.792Z,0.10
2022-08-30T10:57:43.061Z,0.10
2022-08-30T11:00:14.395Z,0.00
2022-08-30T11:03:30.394Z,0.10
2022-08-30T11:06:16.542Z,0.07
2022-08-30T11:09:05.514Z,0.00
2022-08-30T11:11:45.790Z,0.00
2022-08-30T11:14:18.391Z,0.10
2022-08-30T11:16:48.734Z,0.00
2022-08-30T11:19:21.968Z,0.00
2022-08-30T11:21:52.319Z,0.00
2022-08-30T11:24:24.606Z,0.00
2022-08-30T11:27:01.695Z,0.00
2022-08-30T11:29:35.181Z,0.10
2022-08-30T11:32:38.845Z,0.00
2022-08-30T11:35:11.217Z,0.00
2022-08-30T11:38:02.435Z,0.00
2022-08-30T11:40:50.076Z,0.07
2022-08-30T11:43:55.540Z,0.00
2022-08-30T11:46:39.761Z,0.00
2022-08-30T11:49:50.193Z,0.07
2022-08-30T11:52:50.063Z,0.00
2022-08-30T11:55:43.034Z,0.10
2022-08-30T11:58:25.903Z,0.00
2022-08-30T12:01:49.701Z,0.00
2022-08-30T12:04:29.573Z,0.00
2022-08-30T12:06:59.893Z,0.00
2022-08-30T12:10:06.841Z,0.00
2022-08-30T12:13:15.269Z,0.00
2022-08-30T12:16:05.190Z,0.00
2022-08-30T12:18:44.453Z,0.00
2022-08-30T12:21:28.932Z,0.00
2022-08-30T12:24:04.142Z,0.00
2022-08-30T12:26:37.360Z,0.00
2022-08-30T12:29:19.961Z,0.00
2022-08-30T12:31:54.863Z,0.00
2022-08-30T12:34:27.435Z,0.00
2022-08-30T12:37:00.795Z,0.00
2022-08-30T12:39:31.571Z,0.00
2022-08-30T12:42:17.705Z,0.00
2022-08-30T12:44:50.083Z,0.10
2022-08-30T12:47:25.568Z,0.00
2022-08-30T12:49:55.104Z,0.07
2022-08-30T12:52:32.377Z,0.00
2022-08-30T12:55:13.549Z,0.00
2022-08-30T12:58:00.667Z,0.00
2022-08-30T13:00:31.938Z,0.00
2022-08-30T13:03:25.858Z,0.00
2022-08-30T13:05:54.855Z,0.00
2022-08-30T13:08:27.323Z,0.00
2022-08-30T13:10:59.128Z,0.00
2022-08-30T13:13:37.507Z,0.00
2022-08-30T13:16:26.294Z,0.07
2022-08-30T13:18:57.526Z,0.00
2022-08-30T13:21:29.440Z,0.00
2022-08-30T13:24:00.019Z,0.00
2022-08-30T13:26:41.226Z,0.00
2022-08-30T13:29:22.941Z,0.00
2022-08-30T13:31:52.667Z,0.00
2022-08-30T13:34:23.511Z,0.00
2022-08-30T13:36:54.769Z,0.00
2022-08-30T13:39:22.781Z,0.00
2022-08-30T13:41:51.565Z,0.00
2022-08-30T13:44:20.372Z,0.00
2022-08-30T13:46:55.938Z,0.00
2022-08-30T13:49:45.820Z,0.10
2022-08-30T13:52:21.469Z,0.10
2022-08-30T13:54:50.922Z,0.10
2022-08-30T14:00:14.485Z,0.00
2022-08-30T14:02:47.777Z,0.00
2022-08-30T14:05:46.734Z,0.00
2022-08-30T14:11:19.431Z,0.00
2022-08-30T14:16:40.132Z,0.00
2022-08-30T14:19:11.518Z,0.00
2022-08-30T14:21:49.033Z,0.00
2022-08-30T14:24:20.035Z,0.00
2022-08-30T14:26:51.475Z,0.00
2022-08-30T14:29:21.921Z,0.00
2022-08-30T14:31:50.253Z,0.00
2022-08-30T14:34:19.442Z,0.08
2022-08-30T14:36:48.728Z,0.00
2022-08-30T14:39:20.654Z,0.00
2022-08-30T14:41:51.349Z,0.00
2022-08-30T14:44:23.588Z,0.00
2022-08-30T14:46:52.408Z,0.00
2022-08-30T14:49:22.462Z,0.00
2022-08-30T14:51:53.745Z,0.00
2022-08-30T14:54:25.575Z,0.00
2022-08-30T14:56:56.321Z,0.00
2022-08-30T14:59:25.425Z,0.00
2022-08-30T15:01:53.437Z,0.00
2022-08-30T15:04:21.843Z,0.00
2022-08-30T15:06:51.637Z,0.00
2022-08-30T15:09:28.164Z,0.00
2022-08-30T15:11:59.586Z,0.00
2022-08-30T15:14:28.267Z,0.00
2022-08-30T15:16:58.226Z,0.00
2022-08-30T15:19:26.902Z,0.00
2022-08-30T15:22:01.831Z,0.00
2022-08-30T15:24:31.496Z,0.00
2022-08-30T15:27:03.248Z,0.00
2022-08-30T15:29:31.906Z,0.00
2022-08-30T15:32:01.763Z,0.03
2022-08-30T15:34:30.163Z,0.10
2022-08-30T15:36:58.553Z,0.20
2022-08-30T15:39:27.085Z,0.10
2022-08-30T15:42:00.725Z,0.10
2022-08-30T15:44:30.108Z,0.10
2022-08-30T15:46:58.329Z,0.10
2022-08-30T15:49:26.353Z,0.00
2022-08-30T15:51:56.616Z,0.00
2022-08-30T15:54:25.337Z,0.00
2022-08-30T15:56:59.740Z,0.10
2022-08-30T15:59:33.060Z,0.00
2022-08-30T16:02:01.226Z,0.10
2022-08-30T16:04:29.763Z,0.10
2022-08-30T16:06:57.846Z,0.10
2022-08-30T16:09:30.073Z,0.10
2022-08-30T16:12:01.313Z,0.10
2022-08-30T16:14:30.884Z,0.10
2022-08-30T16:16:59.412Z,0.10
2022-08-30T16:19:27.863Z,0.10
2022-08-30T16:21:56.937Z,0.10
2022-08-30T16:24:25.930Z,0.10
2022-08-30T16:26:54.101Z,0.10
2022-08-30T16:29:22.545Z,0.10
2022-08-30T16:31:55.070Z,0.10
2022-08-30T16:34:23.159Z,0.10
2022-08-30T16:36:53.698Z,0.10
2022-08-30T16:39:22.299Z,0.10
2022-08-30T16:41:51.390Z,0.10
2022-08-30T16:44:19.359Z,0.20
2022-08-30T16:46:53.277Z,0.20
2022-08-30T16:49:25.584Z,0.10
2022-08-30T16:51:54.428Z,0.10
2022-08-30T16:54:23.412Z,0.10
2022-08-30T16:56:51.482Z,0.10
2022-08-30T16:59:19.707Z,0.10
2022-08-30T17:01:48.250Z,0.10
2022-08-30T17:04:20.040Z,0.10
2022-08-30T17:07:05.967Z,0.10
2022-08-30T17:09:35.568Z,0.10
2022-08-30T17:12:04.107Z,0.10
2022-08-30T17:14:32.411Z,0.10
2022-08-30T17:17:01.365Z,0.10
2022-08-30T17:19:29.439Z,0.10
2022-08-30T17:21:58.129Z,0.17
2022-08-30T17:24:28.213Z,0.17
2022-08-30T17:26:56.651Z,0.10
2022-08-30T17:29:26.385Z,0.10
2022-08-30T17:31:55.176Z,0.20
2022-08-30T17:34:24.063Z,0.10
2022-08-30T17:36:57.146Z,0.10
2022-08-30T17:39:28.659Z,0.20
2022-08-30T17:41:56.829Z,0.20
2022-08-30T17:44:29.002Z,0.20
2022-08-30T17:46:58.503Z,0.20
2022-08-30T17:49:29.598Z,0.20
2022-08-30T17:51:58.493Z,0.10
2022-08-30T17:54:29.236Z,0.20
2022-08-30T17:56:58.538Z,0.20
2022-08-30T17:59:29.265Z,0.20
2022-08-30T18:02:01.709Z,0.10
2022-08-30T18:04:30.448Z,0.20
2022-08-30T18:06:58.656Z,0.13
2022-08-30T18:09:33.663Z,0.20
2022-08-30T18:12:02.103Z,0.13
2022-08-30T18:14:30.069Z,0.20
2022-08-30T18:16:58.496Z,0.10
2022-08-30T18:19:27.918Z,0.20
2022-08-30T18:21:57.862Z,0.10
2022-08-30T18:24:29.280Z,0.20
2022-08-30T18:26:57.932Z,0.20
2022-08-30T18:29:31.213Z,0.20
2022-08-30T18:31:59.842Z,0.10
2022-08-30T18:34:28.262Z,0.20
2022-08-30T18:36:56.832Z,0.20
2022-08-30T18:39:25.308Z,0.20
2022-08-30T18:44:43.925Z,0.20
2022-08-30T18:47:13.206Z,0.20
2022-08-30T18:49:46.553Z,0.20
2022-08-30T18:52:14.453Z,0.20
2022-08-30T18:54:52.454Z,0.20
2022-08-30T18:57:23.016Z,0.20
2022-08-30T18:59:51.193Z,0.20
2022-08-30T19:02:19.197Z,0.20
2022-08-30T19:04:49.056Z,0.20
2022-08-30T19:07:21.529Z,0.20
2022-08-30T19:09:55.540Z,0.20
2022-08-30T19:12:32.555Z,0.10
2022-08-30T19:15:00.786Z,0.20
2022-08-30T19:17:30.090Z,0.20
2022-08-30T19:19:58.385Z,0.20
2022-08-30T19:22:36.081Z,0.20
2022-08-30T19:25:24.213Z,0.20
2022-08-30T19:27:58.713Z,0.20
2022-08-30T19:30:29.806Z,0.20
2022-08-30T19:32:58.567Z,0.20
2022-08-30T19:35:51.259Z,0.20
2022-08-30T19:38:38.024Z,0.20
2022-08-30T19:41:32.551Z,0.20
2022-08-30T19:47:00.094Z,0.20
2022-08-30T19:49:29.477Z,0.20
2022-08-30T19:51:58.084Z,0.20
2022-08-30T19:54:39.684Z,0.20
2022-08-30T19:57:11.302Z,0.20
2022-08-30T19:59:48.715Z,0.20
2022-08-30T20:02:17.912Z,0.20
2022-08-30T20:04:47.973Z,0.20
2022-08-30T20:07:25.219Z,0.20
2022-08-30T20:09:55.881Z,0.20
2022-08-30T20:12:24.016Z,0.20
2022-08-30T20:14:59.254Z,0.20
2022-08-30T20:17:42.471Z,0.20
2022-08-30T20:20:20.877Z,0.20
2022-08-30T20:22:54.347Z,0.20
2022-08-30T20:24:29.072Z,0.20
2022-08-30T20:25:25.239Z,0.20
2022-08-30T20:27:59.574Z,0.20
2022-08-30T20:30:31.068Z,0.20
2022-08-30T20:33:07.105Z,0.20
2022-08-30T20:35:38.664Z,0.10
2022-08-30T20:38:07.268Z,0.20
2022-08-30T20:40:36.226Z,0.20
2022-08-30T20:43:05.175Z,0.20
2022-08-30T20:45:35.854Z,0.20
2022-08-30T20:48:06.047Z,0.20
2022-08-30T20:50:33.880Z,0.20
2022-08-30T20:53:03.500Z,0.20
2022-08-30T20:55:31.649Z,0.20
2022-08-30T20:57:59.865Z,0.20
2022-08-30T21:00:30.331Z,0.20
2022-08-30T21:03:01.089Z,0.20
2022-08-30T21:05:30.276Z,0.20
2022-08-30T21:08:00.492Z,0.20
2022-08-30T21:10:40.662Z,0.20
2022-08-30T21:13:09.326Z,0.20
2022-08-30T21:15:39.834Z,0.20
2022-08-30T21:18:10.429Z,0.20
2022-08-30T21:20:39.603Z,0.20
2022-08-30T21:23:09.044Z,0.20
2022-08-30T21:25:39.782Z,0.20
2022-08-30T21:28:08.408Z,0.10
2022-08-30T21:30:39.200Z,0.20
2022-08-30T21:33:09.842Z,0.20
2022-08-30T21:35:56.455Z,0.20
2022-08-30T21:38:24.917Z,0.20
2022-08-30T21:40:53.905Z,0.20
2022-08-30T21:43:23.032Z,0.20
2022-08-30T21:45:53.831Z,0.20
2022-08-30T21:48:23.306Z,0.20
2022-08-30T21:50:51.335Z,0.20
2022-08-30T21:53:19.474Z,0.20
2022-08-30T21:55:48.034Z,0.20
2022-08-30T21:58:16.694Z,0.20
2022-08-30T22:00:44.687Z,0.20
2022-08-30T22:03:12.726Z,0.20
2022-08-30T22:05:45.969Z,0.20
2022-08-30T22:08:13.891Z,0.20
2022-08-30T22:10:44.848Z,0.20
2022-08-30T22:13:14.101Z,0.23
2022-08-30T22:15:42.366Z,0.20
2022-08-30T22:18:10.247Z,0.20
2022-08-30T22:20:38.131Z,0.20
2022-08-30T22:23:07.864Z,0.20
2022-08-30T22:25:36.796Z,0.20
2022-08-30T22:28:06.966Z,0.20
2022-08-30T22:30:34.938Z,0.20
2022-08-30T22:33:02.979Z,0.30
2022-08-30T22:35:30.835Z,0.20
2022-08-30T22:37:59.048Z,0.20
2022-08-30T22:40:28.558Z,0.20
2022-08-30T22:42:57.518Z,0.30
2022-08-30T22:45:26.265Z,0.20
2022-08-30T22:47:54.345Z,0.20
2022-08-30T22:50:23.266Z,0.20
2022-08-30T22:52:51.259Z,0.20
2022-08-30T22:55:19.232Z,0.20
2022-08-30T22:57:48.584Z,0.20
2022-08-30T23:00:17.921Z,0.20
2022-08-30T23:02:54.033Z,0.20
2022-08-30T23:05:24.185Z,0.23
2022-08-30T23:08:02.060Z,0.20
2022-08-30T23:10:32.849Z,0.20
2022-08-30T23:13:04.175Z,0.20
2022-08-30T23:15:34.137Z,0.20
2022-08-30T23:18:02.439Z,0.20
2022-08-30T23:20:30.338Z,0.20
2022-08-30T23:23:00.106Z,0.20
2022-08-30T23:25:49.665Z,0.20
2022-08-30T23:28:40.405Z,0.20
2022-08-30T23:31:31.354Z,0.20
2022-08-30T23:34:17.169Z,0.20
2022-08-30T23:37:02.608Z,0.20
2022-08-30T23:39:48.394Z,0.27
2022-08-30T23:42:34.270Z,0.20
2022-08-30T23:45:21.019Z,0.20
2022-08-30T23:48:06.454Z,0.20
2022-08-30T23:50:51.850Z,0.20
2022-08-30T23:53:37.261Z,0.20
2022-08-30T23:56:22.671Z,0.20
2022-08-30T23:59:08.119Z,0.20
